Terminal Aerodrome Forecast
Issued by NWS Sioux Falls, SD

Home | Current Version | Previous Version | Graphics & Text | Print | Product List | Glossary Off
Versions: 1 2 3 4 5 6 7 8 9 10 11 12 13 14 15 16 17 18 19 20 21 22 23 24 25 26 27 28

244
FTUS43 KFSD 240909 AAA
TAFSUX
TAF AMD
KSUX 240909Z 2409/2506 24005KT P6SM BKN015
     FM241000 32007KT P6SM SCT200
     FM241600 35010KT P6SM SCT200
     FM250000 34005KT P6SM SCT150=

USA.gov is the U.S. government's official web portal to all federal, state and local government web resources and services.